Flight Track Log - Related Links

Times and Time Zones

All times are in EDT time to prevent confusion due to time zone crossing. See the N229CN flight status page for this flight to view local times or setup timezone preferences in your user account.

Time Position Orientation Groundspeed Altitude Reporting Facility
EDT Latitude Longitude Course Direction KTS km/h feet Rate Location/Type
Thu 18:54:42 34.3558 -97.9694 183° South 223 414 6,900  Level Fort Worth Center
Thu 18:56:42 34.2139 -97.9786 183° South 256 475 11,800 2,567 Climbing Fort Worth Center
Thu 18:57:42 34.1406 -97.9906 188° South 261 483 14,600 3,000 Climbing Fort Worth Center
Thu 18:58:00 33.9478 -97.9802 185° South  Level FlightAware Approximate
Thu 18:58:42 34.0614 -98.0103 192° South 261 483 17,800  Level Fort Worth Center
Thu 18:59:42 33.9881 -98.0347 195° South 267 494 20,000 2,150 Climbing Fort Worth Center
Thu 19:00:42 33.9086 -98.0567 193° South 282 523 22,100 2,150 Climbing Fort Worth Center
Thu 19:01:42 33.8169 -98.0611 182° South 302 560 24,300 2,000 Climbing Fort Worth Center
Thu 19:02:42 33.7375 -98.0628 181° South 318 589 26,100 1,700 Climbing Fort Worth Center
Thu 19:03:42 33.6436 -98.0672 182° South 334 618 27,700 1,650 Climbing Fort Worth Center
Thu 19:04:42 33.5497 -98.0714 182° South 334 618 29,400 1,850 Climbing Fort Worth Center
Thu 19:05:42 33.4578 -98.0733 181° South 339 628 31,400 1,750 Climbing Fort Worth Center
Thu 19:06:42 33.3703 -98.0775 182° South 329 610 32,900 800 Climbing Fort Worth Center
Thu 19:07:42 33.2742 -98.0794 181° South 333 616 33,000 50 Climbing Fort Worth Center
Thu 19:08:42 33.1675 -98.0836 182° South 366 678 33,000  Level Fort Worth Center
Thu 19:09:42 33.0633 -98.0878 182° South 380 703 33,000  Level Fort Worth Center
Thu 19:10:42 32.9525 -98.0892 181° South 390 723 33,000 850 Level Fort Worth Center
Thu 19:11:42 32.8378 -98.0933 182° South 389 721 34,700 1,950 Climbing Fort Worth Center
Thu 19:12:42 32.7439 -98.0975 182° South 360 666 36,900 1,850 Climbing Fort Worth Center
Thu 19:13:42 32.6581 -98.0994 181° South 324 600 38,400 1,450 Climbing Fort Worth Center
Thu 19:14:42 32.5725 -98.1011 181° South 307 568 39,800 1,250 Climbing Fort Worth Center
Thu 19:15:42 32.4892 -98.1056 183° South 307 568 40,900 600 Climbing Fort Worth Center
Thu 19:16:42 32.3972 -98.1097 182° South 322 597 41,000 50 Climbing Fort Worth Center
Thu 19:17:42 32.2969 -98.1114 181° South 343 636 41,000  Level Fort Worth Center
Thu 19:18:42 32.1925 -98.1156 182° South 372 689 41,000  Level Fort Worth Center
Thu 19:19:42 32.0881 -98.1172 181° South 380 703 41,000  Level Fort Worth Center
Thu 19:22:07 31.8436 -98.1225 181° South 375 695 41,000  Level Houston Center
Thu 19:23:09 31.7356 -98.1258 182° South 381 705 41,000  Level Houston Center
Thu 19:24:11 31.6283 -98.1294 182° South 382 708 41,000  Level Houston Center
Thu 19:25:13 31.5269 -98.1336 182° South 368 681 41,000  Level Houston Center
Thu 19:26:16 31.4078 -98.1353 181° South 364 674 41,000  Level Houston Center
Thu 19:27:17 31.3033 -98.1392 182° South 370 686 41,000  Level Houston Center
Thu 19:28:20 31.1978 -98.1436 182° South 375 695 41,000  Level Houston Center
Thu 19:29:22 31.0928 -98.1431 180° South 377 698 41,000  Level Houston Center
Thu 19:30:24 30.9897 -98.1444 181° South 371 687 41,000  Level Houston Center
Thu 19:31:26 30.8878 -98.1442 180° South 365 676 41,000  Level Houston Center
Thu 19:32:28 30.7853 -98.1444 180° South 365 676 41,000  Level Houston Center
Thu 19:33:30 30.6642 -98.1450 180° South 370 686 41,000  Level Houston Center
Thu 19:34:32 30.5603 -98.1450 180° South 370 686 41,000  Level Houston Center
Thu 19:35:34 30.4575 -98.1456 180° South 367 679 41,000  Level Houston Center
Thu 19:36:36 30.3553 -98.1450 180° South 365 676 41,000  Level Houston Center
Thu 19:37:39 30.2439 -98.1453 180° South 361 668 41,000 -48 Level Houston Center
Thu 19:38:41 30.1336 -98.1458 180° South 366 678 40,900 -774 Descending Houston Center
Thu 19:39:43 30.0322 -98.1458 180° South 365 676 39,400 -1,645 Descending Houston Center
Thu 19:40:45 29.9242 -98.1475 181° South 361 668 37,500 -1,161 Descending Houston Center
Thu 19:41:47 29.8222 -98.1472 180° South 365 676 37,000 -242 Descending Houston Center
Thu 19:42:49 29.7222 -98.1475 180° South 359 665 37,000  Level Houston Center
Thu 19:43:51 29.6119 -98.1475 180° South 368 681 37,000  Level Houston Center
Thu 19:44:53 29.5061 -98.1475 180° South 379 702 37,000 -726 Level Houston Center
Thu 19:45:55 29.3892 -98.1478 180° South 387 716 35,500 -1,645 Descending Houston Center
Thu 19:46:57 29.2811 -98.1494 181° South 387 716 33,600 -1,920 Descending Houston Center
Thu 19:48:00 29.1708 -98.1506 181° South 393 727 31,500 -2,016 Descending Houston Center
Thu 19:49:02 29.0531 -98.1517 180° South 393 727 29,400 -1,984 Descending Houston Center
Thu 19:50:04 28.9417 -98.1517 180° South 398 737 27,400 -2,032 Descending Houston Center
Thu 19:51:06 28.8228 -98.1525 180° South 395 732 25,200 -2,032 Descending Houston Center
Thu 19:52:08 28.7219 -98.1533 180° South 382 708 23,200 -1,887 Descending Houston Center
Thu 19:53:10 28.6175 -98.1506 179° South 380 703 21,300 -1,935 Descending Houston Center
Thu 19:54:12 28.5153 -98.1481 179° South 369 684 19,200 -2,000 Descending Houston Center
Thu 19:55:10 28.4331 -98.0661 139° Southeast 352 652 17,300 -2,053 Descending Houston Center
Thu 19:55:28 28.4094 -98.0406 136° Southeast 350 649 16,600 -2,000 Descending Houston Center
Thu 19:56:16 28.3606 -97.9797 132° Southeast 352 652 15,100 -1,701 Descending Houston Center
Thu 19:56:35 28.3397 -97.9572 136° Southeast 348 644 14,700 -1,452 Descending Houston Center
Thu 19:57:18 28.2928 -97.9044 135° Southeast 346 641 13,600 -1,700 Descending Houston Center
Thu 19:57:35 28.2658 -97.8933 160° South 319 591 13,000 -1,967 Descending Houston Center
Thu 19:58:19 28.2206 -97.8658 152° Southeast 300 555 11,600 -1,967 Descending Houston Center
Thu 19:58:36 28.1986 -97.8550 156° South 261 483 11,000 -2,032 Descending Houston Center
Thu 19:59:21 28.1511 -97.8253 151° Southeast 276 512 9,500 -1,963 Descending Houston Center
Thu 20:00:23 28.0917 -97.7900 152° Southeast 256 475 7,500 -1,935 Descending Houston Center
Thu 20:01:25 28.0342 -97.7581 154° Southeast 239 443 5,500 -1,790 Descending Houston Center
Thu 20:02:27 27.9775 -97.7281 155° Southeast 231 428 3,800 -1,210 Descending Houston Center
Thu 20:03:29 27.9350 -97.6808 136° Southeast 222 410 3,000 -812 Descending Houston Center
Thu 20:04:40 27.8917 -97.6403 140° Southeast 158 293 2,000 -458 Descending Houston Center
Thu 20:05:40 27.8631 -97.6086 136° Southeast 146 270 2,000 -142 Level Houston Center
Thu 20:06:47 27.8367 -97.5792 135° Southeast 109 201 1,700 -422 Descending Houston Center
Thu 20:07:48 27.8175 -97.5581 136° Southeast 85 158 1,100 -574 Descending Houston Center
Thu 20:08:42 27.7986 -97.5369 135° Southeast 104 193 600 -556 Descending Houston Center
Thu 20:10:00 27.7667 -97.5000 138° Southeast  Level FlightAware Approximate
Thu 20:17:00 27.7704 -97.5012 138° Southeast  Level Estimated

Login

Don't have an account? Register now (free) for customized features, flight alerts, and more!